sensor_id;sensor_type;location;lat;lon;timestamp;P1;durP1;ratioP1;P2;durP2;ratioP2
51616;SDS011;37697;52.588;13.394;2023-11-19T00:01:02;8.90;;;6.60;;
51616;SDS011;37697;52.588;13.394;2023-11-19T00:06:29;8.70;;;6.60;;
51616;SDS011;37697;52.588;13.394;2023-11-19T00:11:55;10.90;;;6.60;;
51616;SDS011;37697;52.588;13.394;2023-11-19T00:17:21;9.00;;;6.40;;
51616;SDS011;37697;52.588;13.394;2023-11-19T00:22:47;9.60;;;6.60;;
51616;SDS011;37697;52.588;13.394;2023-11-19T00:28:13;9.60;;;6.70;;
51616;SDS011;37697;52.588;13.394;2023-11-19T00:33:38;10.00;;;6.40;;
51616;SDS011;37697;52.588;13.394;2023-11-19T00:39:04;8.70;;;6.10;;
51616;SDS011;37697;52.588;13.394;2023-11-19T00:44:30;8.30;;;6.00;;
51616;SDS011;37697;52.588;13.394;2023-11-19T00:49:56;9.80;;;6.70;;
51616;SDS011;37697;52.588;13.394;2023-11-19T00:55:15;9.20;;;6.30;;
51616;SDS011;37697;52.588;13.394;2023-11-19T01:00:50;16.00;;;7.50;;
51616;SDS011;37697;52.588;13.394;2023-11-19T01:06:15;10.20;;;6.60;;
51616;SDS011;37697;52.588;13.394;2023-11-19T01:11:53;9.30;;;6.90;;
51616;SDS011;37697;52.588;13.394;2023-11-19T01:17:19;11.40;;;6.40;;
51616;SDS011;37697;52.588;13.394;2023-11-19T01:22:56;8.30;;;5.90;;
51616;SDS011;37697;52.588;13.394;2023-11-19T01:28:20;7.50;;;5.90;;
51616;SDS011;37697;52.588;13.394;2023-11-19T01:33:54;9.20;;;5.80;;
51616;SDS011;37697;52.588;13.394;2023-11-19T01:39:20;6.80;;;4.60;;
51616;SDS011;37697;52.588;13.394;2023-11-19T01:44:39;9.60;;;5.80;;
51616;SDS011;37697;52.588;13.394;2023-11-19T01:50:05;7.40;;;5.60;;
51616;SDS011;37697;52.588;13.394;2023-11-19T01:55:32;8.90;;;5.40;;
51616;SDS011;37697;52.588;13.394;2023-11-19T02:00:57;7.10;;;5.10;;
51616;SDS011;37697;52.588;13.394;2023-11-19T02:06:18;8.00;;;5.00;;
51616;SDS011;37697;52.588;13.394;2023-11-19T02:11:44;6.60;;;5.00;;
51616;SDS011;37697;52.588;13.394;2023-11-19T02:22:50;7.40;;;5.10;;
51616;SDS011;37697;52.588;13.394;2023-11-19T02:28:16;8.20;;;5.10;;
51616;SDS011;37697;52.588;13.394;2023-11-19T02:33:42;7.70;;;5.20;;
51616;SDS011;37697;52.588;13.394;2023-11-19T02:39:08;6.40;;;4.60;;
51616;SDS011;37697;52.588;13.394;2023-11-19T02:44:33;7.10;;;5.10;;
51616;SDS011;37697;52.588;13.394;2023-11-19T02:49:59;7.20;;;5.00;;
51616;SDS011;37697;52.588;13.394;2023-11-19T02:55:25;7.00;;;4.60;;
51616;SDS011;37697;52.588;13.394;2023-11-19T03:00:44;8.90;;;4.90;;
51616;SDS011;37697;52.588;13.394;2023-11-19T03:06:13;6.90;;;4.80;;
51616;SDS011;37697;52.588;13.394;2023-11-19T03:11:39;5.50;;;3.90;;
51616;SDS011;37697;52.588;13.394;2023-11-19T03:17:04;5.70;;;3.80;;
51616;SDS011;37697;52.588;13.394;2023-11-19T03:22:30;6.00;;;3.40;;
51616;SDS011;37697;52.588;13.394;2023-11-19T03:27:56;6.20;;;3.80;;
51616;SDS011;37697;52.588;13.394;2023-11-19T03:33:22;6.50;;;4.40;;
51616;SDS011;37697;52.588;13.394;2023-11-19T03:38:47;8.10;;;4.30;;
51616;SDS011;37697;52.588;13.394;2023-11-19T03:44:13;5.80;;;4.40;;
51616;SDS011;37697;52.588;13.394;2023-11-19T03:49:39;6.50;;;4.40;;
51616;SDS011;37697;52.588;13.394;2023-11-19T03:55:05;7.70;;;4.80;;
51616;SDS011;37697;52.588;13.394;2023-11-19T04:00:31;6.90;;;5.00;;
51616;SDS011;37697;52.588;13.394;2023-11-19T04:05:57;7.50;;;5.80;;
51616;SDS011;37697;52.588;13.394;2023-11-19T04:11:23;7.10;;;4.80;;
51616;SDS011;37697;52.588;13.394;2023-11-19T04:16:48;6.80;;;4.90;;
51616;SDS011;37697;52.588;13.394;2023-11-19T04:22:14;8.10;;;5.60;;
51616;SDS011;37697;52.588;13.394;2023-11-19T04:27:40;10.10;;;6.50;;
51616;SDS011;37697;52.588;13.394;2023-11-19T04:33:06;10.30;;;6.70;;
51616;SDS011;37697;52.588;13.394;2023-11-19T04:38:31;9.00;;;6.10;;
51616;SDS011;37697;52.588;13.394;2023-11-19T04:43:57;10.80;;;6.50;;
51616;SDS011;37697;52.588;13.394;2023-11-19T04:49:23;9.00;;;6.10;;
51616;SDS011;37697;52.588;13.394;2023-11-19T04:54:49;9.20;;;6.70;;
51616;SDS011;37697;52.588;13.394;2023-11-19T05:00:15;9.80;;;6.30;;
51616;SDS011;37697;52.588;13.394;2023-11-19T05:05:41;11.80;;;7.20;;
51616;SDS011;37697;52.588;13.394;2023-11-19T05:11:07;9.10;;;6.40;;
51616;SDS011;37697;52.588;13.394;2023-11-19T05:16:32;8.40;;;6.00;;
51616;SDS011;37697;52.588;13.394;2023-11-19T05:21:58;9.50;;;7.00;;
51616;SDS011;37697;52.588;13.394;2023-11-19T05:27:24;9.60;;;6.80;;
51616;SDS011;37697;52.588;13.394;2023-11-19T05:32:50;8.40;;;6.10;;
51616;SDS011;37697;52.588;13.394;2023-11-19T05:38:15;7.00;;;5.20;;
51616;SDS011;37697;52.588;13.394;2023-11-19T05:43:41;8.00;;;6.60;;
51616;SDS011;37697;52.588;13.394;2023-11-19T05:49:07;9.90;;;6.20;;
51616;SDS011;37697;52.588;13.394;2023-11-19T05:54:33;9.20;;;6.20;;
51616;SDS011;37697;52.588;13.394;2023-11-19T05:59:58;6.60;;;4.20;;
51616;SDS011;37697;52.588;13.394;2023-11-19T06:05:24;6.20;;;4.60;;
51616;SDS011;37697;52.588;13.394;2023-11-19T06:10:50;7.50;;;4.80;;
51616;SDS011;37697;52.588;13.394;2023-11-19T06:16:15;8.20;;;5.30;;
51616;SDS011;37697;52.588;13.394;2023-11-19T06:21:41;7.70;;;5.60;;
51616;SDS011;37697;52.588;13.394;2023-11-19T06:27:07;8.60;;;5.70;;
51616;SDS011;37697;52.588;13.394;2023-11-19T06:32:33;9.00;;;6.10;;
51616;SDS011;37697;52.588;13.394;2023-11-19T06:37:59;8.60;;;6.70;;
51616;SDS011;37697;52.588;13.394;2023-11-19T06:43:24;8.90;;;6.80;;
51616;SDS011;37697;52.588;13.394;2023-11-19T06:48:50;7.80;;;6.00;;
51616;SDS011;37697;52.588;13.394;2023-11-19T06:54:16;8.50;;;6.10;;
51616;SDS011;37697;52.588;13.394;2023-11-19T06:59:41;8.20;;;5.80;;
51616;SDS011;37697;52.588;13.394;2023-11-19T07:05:07;6.60;;;5.10;;
51616;SDS011;37697;52.588;13.394;2023-11-19T07:10:33;7.20;;;5.30;;
51616;SDS011;37697;52.588;13.394;2023-11-19T07:15:59;7.00;;;5.30;;
51616;SDS011;37697;52.588;13.394;2023-11-19T07:21:25;7.80;;;5.80;;
51616;SDS011;37697;52.588;13.394;2023-11-19T07:26:51;6.00;;;5.00;;
51616;SDS011;37697;52.588;13.394;2023-11-19T07:32:16;5.80;;;4.40;;
51616;SDS011;37697;52.588;13.394;2023-11-19T07:37:42;6.40;;;4.50;;
51616;SDS011;37697;52.588;13.394;2023-11-19T07:43:08;5.60;;;4.30;;
51616;SDS011;37697;52.588;13.394;2023-11-19T07:48:34;4.80;;;3.70;;
51616;SDS011;37697;52.588;13.394;2023-11-19T07:53:59;6.10;;;4.80;;
51616;SDS011;37697;52.588;13.394;2023-11-19T07:59:25;13.70;;;9.20;;
51616;SDS011;37697;52.588;13.394;2023-11-19T08:04:51;7.90;;;6.40;;
51616;SDS011;37697;52.588;13.394;2023-11-19T08:10:17;6.70;;;5.10;;
51616;SDS011;37697;52.588;13.394;2023-11-19T08:15:42;7.20;;;5.50;;
51616;SDS011;37697;52.588;13.394;2023-11-19T08:21:08;6.40;;;5.00;;
51616;SDS011;37697;52.588;13.394;2023-11-19T08:26:34;6.60;;;5.00;;
51616;SDS011;37697;52.588;13.394;2023-11-19T08:32:03;6.00;;;4.60;;
51616;SDS011;37697;52.588;13.394;2023-11-19T08:37:29;4.60;;;3.40;;
51616;SDS011;37697;52.588;13.394;2023-11-19T08:42:48;7.10;;;5.20;;
51616;SDS011;37697;52.588;13.394;2023-11-19T08:48:13;6.80;;;5.60;;
51616;SDS011;37697;52.588;13.394;2023-11-19T08:53:39;7.60;;;6.30;;
51616;SDS011;37697;52.588;13.394;2023-11-19T08:59:05;13.90;;;12.20;;
51616;SDS011;37697;52.588;13.394;2023-11-19T09:04:30;9.70;;;7.90;;
51616;SDS011;37697;52.588;13.394;2023-11-19T09:09:58;7.10;;;5.80;;
51616;SDS011;37697;52.588;13.394;2023-11-19T09:15:23;8.00;;;5.30;;
51616;SDS011;37697;52.588;13.394;2023-11-19T09:20:49;6.80;;;5.00;;
51616;SDS011;37697;52.588;13.394;2023-11-19T09:26:15;8.10;;;5.30;;
51616;SDS011;37697;52.588;13.394;2023-11-19T09:31:40;6.80;;;5.70;;
51616;SDS011;37697;52.588;13.394;2023-11-19T09:37:09;6.00;;;4.30;;
51616;SDS011;37697;52.588;13.394;2023-11-19T09:42:37;6.00;;;4.20;;
51616;SDS011;37697;52.588;13.394;2023-11-19T09:48:12;6.20;;;4.30;;
51616;SDS011;37697;52.588;13.394;2023-11-19T09:53:39;7.10;;;4.20;;
51616;SDS011;37697;52.588;13.394;2023-11-19T09:59:05;8.60;;;5.10;;
51616;SDS011;37697;52.588;13.394;2023-11-19T10:04:31;9.00;;;4.80;;
51616;SDS011;37697;52.588;13.394;2023-11-19T10:09:59;6.70;;;4.50;;
51616;SDS011;37697;52.588;13.394;2023-11-19T10:15:25;7.00;;;4.20;;
51616;SDS011;37697;52.588;13.394;2023-11-19T10:20:52;8.70;;;3.90;;
51616;SDS011;37697;52.588;13.394;2023-11-19T10:26:19;7.70;;;3.70;;
51616;SDS011;37697;52.588;13.394;2023-11-19T10:31:49;7.00;;;3.40;;
51616;SDS011;37697;52.588;13.394;2023-11-19T10:37:30;7.40;;;3.20;;
51616;SDS011;37697;52.588;13.394;2023-11-19T10:43:02;9.20;;;3.60;;
51616;SDS011;37697;52.588;13.394;2023-11-19T10:48:28;10.30;;;3.80;;
51616;SDS011;37697;52.588;13.394;2023-11-19T10:53:54;9.70;;;3.20;;
51616;SDS011;37697;52.588;13.394;2023-11-19T10:59:28;4.10;;;2.40;;
51616;SDS011;37697;52.588;13.394;2023-11-19T11:04:55;8.30;;;3.00;;
51616;SDS011;37697;52.588;13.394;2023-11-19T11:10:23;7.40;;;3.00;;
51616;SDS011;37697;52.588;13.394;2023-11-19T11:21:21;10.10;;;4.00;;
51616;SDS011;37697;52.588;13.394;2023-11-19T11:27:02;8.90;;;2.90;;
51616;SDS011;37697;52.588;13.394;2023-11-19T11:32:43;12.10;;;3.50;;
51616;SDS011;37697;52.588;13.394;2023-11-19T11:38:15;10.00;;;3.30;;
51616;SDS011;37697;52.588;13.394;2023-11-19T11:43:48;13.40;;;3.60;;
51616;SDS011;37697;52.588;13.394;2023-11-19T11:49:10;14.90;;;3.70;;
51616;SDS011;37697;52.588;13.394;2023-11-19T11:54:36;12.60;;;3.20;;
51616;SDS011;37697;52.588;13.394;2023-11-19T11:59:54;12.70;;;3.20;;
51616;SDS011;37697;52.588;13.394;2023-11-19T12:05:20;16.00;;;3.80;;
51616;SDS011;37697;52.588;13.394;2023-11-19T12:10:51;14.70;;;3.90;;
51616;SDS011;37697;52.588;13.394;2023-11-19T12:16:18;11.00;;;3.40;;
51616;SDS011;37697;52.588;13.394;2023-11-19T12:21:43;17.50;;;3.40;;
51616;SDS011;37697;52.588;13.394;2023-11-19T12:27:09;12.00;;;3.20;;
51616;SDS011;37697;52.588;13.394;2023-11-19T12:32:39;15.00;;;3.60;;
51616;SDS011;37697;52.588;13.394;2023-11-19T12:38:06;12.20;;;3.90;;
51616;SDS011;37697;52.588;13.394;2023-11-19T12:43:32;15.60;;;3.30;;
51616;SDS011;37697;52.588;13.394;2023-11-19T12:49:04;16.00;;;4.00;;
51616;SDS011;37697;52.588;13.394;2023-11-19T12:54:33;11.60;;;4.20;;
51616;SDS011;37697;52.588;13.394;2023-11-19T12:59:59;15.90;;;3.80;;
51616;SDS011;37697;52.588;13.394;2023-11-19T13:05:26;15.60;;;3.90;;
51616;SDS011;37697;52.588;13.394;2023-11-19T13:10:55;21.50;;;4.50;;
51616;SDS011;37697;52.588;13.394;2023-11-19T13:16:21;14.10;;;3.90;;
51616;SDS011;37697;52.588;13.394;2023-11-19T13:21:47;16.40;;;4.50;;
51616;SDS011;37697;52.588;13.394;2023-11-19T13:27:13;15.70;;;4.20;;
51616;SDS011;37697;52.588;13.394;2023-11-19T13:32:38;14.20;;;3.90;;
51616;SDS011;37697;52.588;13.394;2023-11-19T13:38:05;10.90;;;2.90;;
51616;SDS011;37697;52.588;13.394;2023-11-19T13:43:31;13.90;;;4.10;;
51616;SDS011;37697;52.588;13.394;2023-11-19T13:48:57;20.90;;;4.60;;
51616;SDS011;37697;52.588;13.394;2023-11-19T13:54:23;14.00;;;4.10;;
51616;SDS011;37697;52.588;13.394;2023-11-19T13:59:50;17.50;;;4.30;;
51616;SDS011;37697;52.588;13.394;2023-11-19T14:05:15;14.00;;;5.10;;
51616;SDS011;37697;52.588;13.394;2023-11-19T14:10:41;20.90;;;4.70;;
51616;SDS011;37697;52.588;13.394;2023-11-19T14:16:08;18.40;;;4.90;;
51616;SDS011;37697;52.588;13.394;2023-11-19T14:21:34;21.70;;;4.50;;
51616;SDS011;37697;52.588;13.394;2023-11-19T14:27:00;17.50;;;4.60;;
51616;SDS011;37697;52.588;13.394;2023-11-19T14:32:25;17.40;;;4.90;;
51616;SDS011;37697;52.588;13.394;2023-11-19T14:37:51;23.10;;;4.60;;
51616;SDS011;37697;52.588;13.394;2023-11-19T14:43:17;18.30;;;4.50;;
51616;SDS011;37697;52.588;13.394;2023-11-19T14:48:42;17.60;;;4.50;;
51616;SDS011;37697;52.588;13.394;2023-11-19T14:54:08;23.50;;;4.60;;
51616;SDS011;37697;52.588;13.394;2023-11-19T14:59:34;20.90;;;4.60;;
51616;SDS011;37697;52.588;13.394;2023-11-19T15:05:00;18.00;;;4.10;;
51616;SDS011;37697;52.588;13.394;2023-11-19T15:10:26;22.40;;;4.30;;
51616;SDS011;37697;52.588;13.394;2023-11-19T15:15:52;17.60;;;4.00;;
51616;SDS011;37697;52.588;13.394;2023-11-19T15:21:18;23.00;;;4.50;;
51616;SDS011;37697;52.588;13.394;2023-11-19T15:26:43;21.00;;;4.10;;
51616;SDS011;37697;52.588;13.394;2023-11-19T15:32:12;14.60;;;3.50;;
51616;SDS011;37697;52.588;13.394;2023-11-19T15:37:38;15.80;;;3.30;;
51616;SDS011;37697;52.588;13.394;2023-11-19T15:43:04;12.90;;;3.20;;
51616;SDS011;37697;52.588;13.394;2023-11-19T15:48:30;22.00;;;4.00;;
51616;SDS011;37697;52.588;13.394;2023-11-19T15:53:56;18.80;;;4.20;;
51616;SDS011;37697;52.588;13.394;2023-11-19T15:59:21;18.60;;;4.30;;
51616;SDS011;37697;52.588;13.394;2023-11-19T16:04:47;22.10;;;4.80;;
51616;SDS011;37697;52.588;13.394;2023-11-19T16:10:17;18.70;;;4.40;;
51616;SDS011;37697;52.588;13.394;2023-11-19T16:15:44;25.10;;;5.90;;
51616;SDS011;37697;52.588;13.394;2023-11-19T16:21:12;15.40;;;5.00;;
51616;SDS011;37697;52.588;13.394;2023-11-19T16:26:37;19.00;;;4.90;;
51616;SDS011;37697;52.588;13.394;2023-11-19T16:32:04;17.50;;;4.50;;
51616;SDS011;37697;52.588;13.394;2023-11-19T16:37:30;18.40;;;3.70;;
51616;SDS011;37697;52.588;13.394;2023-11-19T16:42:56;15.50;;;4.90;;
51616;SDS011;37697;52.588;13.394;2023-11-19T16:48:21;15.80;;;3.20;;
51616;SDS011;37697;52.588;13.394;2023-11-19T16:53:47;17.60;;;3.80;;
51616;SDS011;37697;52.588;13.394;2023-11-19T16:59:13;21.30;;;4.50;;
51616;SDS011;37697;52.588;13.394;2023-11-19T17:04:39;16.60;;;4.30;;
51616;SDS011;37697;52.588;13.394;2023-11-19T17:10:06;25.50;;;5.20;;
51616;SDS011;37697;52.588;13.394;2023-11-19T17:15:34;12.10;;;4.20;;
51616;SDS011;37697;52.588;13.394;2023-11-19T17:21:00;19.80;;;5.50;;
51616;SDS011;37697;52.588;13.394;2023-11-19T17:26:29;21.10;;;4.90;;
51616;SDS011;37697;52.588;13.394;2023-11-19T17:31:54;22.40;;;5.60;;
51616;SDS011;37697;52.588;13.394;2023-11-19T17:37:20;16.80;;;5.20;;
51616;SDS011;37697;52.588;13.394;2023-11-19T17:42:46;14.60;;;4.00;;
51616;SDS011;37697;52.588;13.394;2023-11-19T17:48:12;16.80;;;4.50;;
51616;SDS011;37697;52.588;13.394;2023-11-19T17:53:37;16.60;;;4.80;;
51616;SDS011;37697;52.588;13.394;2023-11-19T17:59:03;17.50;;;4.80;;
51616;SDS011;37697;52.588;13.394;2023-11-19T18:04:29;21.80;;;5.50;;
51616;SDS011;37697;52.588;13.394;2023-11-19T18:09:55;11.00;;;3.90;;
51616;SDS011;37697;52.588;13.394;2023-11-19T18:15:21;19.00;;;3.90;;
51616;SDS011;37697;52.588;13.394;2023-11-19T18:20:46;15.90;;;2.90;;
51616;SDS011;37697;52.588;13.394;2023-11-19T18:26:12;11.50;;;3.80;;
51616;SDS011;37697;52.588;13.394;2023-11-19T18:31:41;14.00;;;4.00;;
51616;SDS011;37697;52.588;13.394;2023-11-19T18:37:07;10.50;;;3.50;;
51616;SDS011;37697;52.588;13.394;2023-11-19T18:42:32;13.90;;;4.00;;
51616;SDS011;37697;52.588;13.394;2023-11-19T18:47:58;10.40;;;3.40;;
51616;SDS011;37697;52.588;13.394;2023-11-19T18:53:24;14.00;;;4.00;;
51616;SDS011;37697;52.588;13.394;2023-11-19T18:58:50;12.20;;;3.50;;
51616;SDS011;37697;52.588;13.394;2023-11-19T19:04:16;10.70;;;3.40;;
51616;SDS011;37697;52.588;13.394;2023-11-19T19:09:41;14.60;;;4.50;;
51616;SDS011;37697;52.588;13.394;2023-11-19T19:15:07;12.90;;;4.80;;
51616;SDS011;37697;52.588;13.394;2023-11-19T19:20:33;16.80;;;4.60;;
51616;SDS011;37697;52.588;13.394;2023-11-19T19:26:07;14.20;;;5.00;;
51616;SDS011;37697;52.588;13.394;2023-11-19T19:31:33;18.90;;;5.20;;
51616;SDS011;37697;52.588;13.394;2023-11-19T19:36:59;17.40;;;5.00;;
51616;SDS011;37697;52.588;13.394;2023-11-19T19:42:25;18.80;;;4.90;;
51616;SDS011;37697;52.588;13.394;2023-11-19T19:47:50;22.00;;;5.70;;
51616;SDS011;37697;52.588;13.394;2023-11-19T19:53:16;15.90;;;4.70;;
51616;SDS011;37697;52.588;13.394;2023-11-19T19:58:42;17.80;;;5.80;;
51616;SDS011;37697;52.588;13.394;2023-11-19T20:04:08;15.00;;;4.20;;
51616;SDS011;37697;52.588;13.394;2023-11-19T20:09:33;15.10;;;4.40;;
51616;SDS011;37697;52.588;13.394;2023-11-19T20:14:59;16.90;;;4.30;;
51616;SDS011;37697;52.588;13.394;2023-11-19T20:20:25;17.40;;;4.50;;
51616;SDS011;37697;52.588;13.394;2023-11-19T20:25:52;16.60;;;4.40;;
51616;SDS011;37697;52.588;13.394;2023-11-19T20:31:17;16.10;;;4.10;;
51616;SDS011;37697;52.588;13.394;2023-11-19T20:36:43;16.40;;;4.80;;
51616;SDS011;37697;52.588;13.394;2023-11-19T20:42:09;17.50;;;4.60;;
51616;SDS011;37697;52.588;13.394;2023-11-19T20:47:35;16.50;;;3.80;;
51616;SDS011;37697;52.588;13.394;2023-11-19T20:53:01;14.60;;;4.10;;
51616;SDS011;37697;52.588;13.394;2023-11-19T20:58:26;14.60;;;3.90;;
51616;SDS011;37697;52.588;13.394;2023-11-19T21:03:52;16.20;;;4.50;;
51616;SDS011;37697;52.588;13.394;2023-11-19T21:09:18;17.40;;;4.20;;
51616;SDS011;37697;52.588;13.394;2023-11-19T21:14:44;13.90;;;4.00;;
51616;SDS011;37697;52.588;13.394;2023-11-19T21:20:11;17.60;;;4.30;;
51616;SDS011;37697;52.588;13.394;2023-11-19T21:25:37;13.50;;;3.30;;
51616;SDS011;37697;52.588;13.394;2023-11-19T21:31:01;17.50;;;3.80;;
51616;SDS011;37697;52.588;13.394;2023-11-19T21:36:27;17.00;;;4.10;;
51616;SDS011;37697;52.588;13.394;2023-11-19T21:41:53;16.40;;;3.70;;
51616;SDS011;37697;52.588;13.394;2023-11-19T21:47:19;19.60;;;3.80;;
51616;SDS011;37697;52.588;13.394;2023-11-19T21:52:45;15.80;;;3.60;;
51616;SDS011;37697;52.588;13.394;2023-11-19T21:58:11;11.80;;;2.90;;
51616;SDS011;37697;52.588;13.394;2023-11-19T22:03:36;15.80;;;3.50;;
51616;SDS011;37697;52.588;13.394;2023-11-19T22:09:02;13.80;;;3.40;;
51616;SDS011;37697;52.588;13.394;2023-11-19T22:14:21;11.80;;;3.50;;
51616;SDS011;37697;52.588;13.394;2023-11-19T22:19:45;11.50;;;3.70;;
51616;SDS011;37697;52.588;13.394;2023-11-19T22:25:27;15.30;;;5.00;;
51616;SDS011;37697;52.588;13.394;2023-11-19T22:30:53;13.30;;;4.00;;
51616;SDS011;37697;52.588;13.394;2023-11-19T22:36:19;12.70;;;3.50;;
51616;SDS011;37697;52.588;13.394;2023-11-19T22:41:44;14.70;;;3.80;;
51616;SDS011;37697;52.588;13.394;2023-11-19T22:47:09;11.80;;;4.20;;
51616;SDS011;37697;52.588;13.394;2023-11-19T22:52:35;17.30;;;4.10;;
51616;SDS011;37697;52.588;13.394;2023-11-19T22:58:01;15.80;;;4.10;;
51616;SDS011;37697;52.588;13.394;2023-11-19T23:03:26;15.30;;;4.90;;
51616;SDS011;37697;52.588;13.394;2023-11-19T23:08:52;14.20;;;4.00;;
51616;SDS011;37697;52.588;13.394;2023-11-19T23:14:08;10.70;;;3.70;;
51616;SDS011;37697;52.588;13.394;2023-11-19T23:19:34;11.70;;;3.60;;
51616;SDS011;37697;52.588;13.394;2023-11-19T23:25:11;10.20;;;4.10;;
51616;SDS011;37697;52.588;13.394;2023-11-19T23:30:30;13.90;;;4.10;;
51616;SDS011;37697;52.588;13.394;2023-11-19T23:35:56;13.60;;;4.00;;
51616;SDS011;37697;52.588;13.394;2023-11-19T23:41:22;14.00;;;4.10;;
51616;SDS011;37697;52.588;13.394;2023-11-19T23:46:48;13.90;;;4.00;;
51616;SDS011;37697;52.588;13.394;2023-11-19T23:52:07;13.50;;;4.40;;
51616;SDS011;37697;52.588;13.394;2023-11-19T23:57:33;14.90;;;3.70;;
